Time;durP1;ratioP1;P1;durP2;ratioP2;P2;SDS_P1;SDS_P2;PMS_P1;PMS_P2;Temp;Humidity;BMP_temperature;BMP_pressure;BME280_temperature;BME280_humidity;BME280_pressure;Samples;Min_cycle;Max_cycle;Signal;HPM_P1;HPM_P2
2021/11/14 00:00:48;;;;;;;13.1;9.200001;;;;;;;6.84;97.18555;95111.42;;;;
2021/11/14 00:01:50;;;;;;;13.1;9.200001;;;;;;;6.84;97.18555;95111.42;;;;
2021/11/14 00:02:52;;;;;;;13.1;9.200001;;;;;;;6.84;97.18555;95111.42;;;;
2021/11/14 00:03:53;;;;;;;13.1;9.200001;;;;;;;6.84;97.18555;95111.42;;;;
2021/11/14 00:04:55;;;;;;;13.1;9.200001;;;;;;;6.84;97.18555;95111.42;;;;
2021/11/14 00:05:56;;;;;;;13.1;9.200001;;;;;;;6.84;97.18555;95111.42;;;;
2021/11/14 00:06:57;;;;;;;16.5;10.45;;;;;;;6.88;97.27832;95104.58;;;;
2021/11/14 00:07:57;;;;;;;16.5;10.45;;;;;;;6.88;97.27832;95104.58;;;;
2021/11/14 00:08:58;;;;;;;16.5;10.45;;;;;;;6.88;97.27832;95104.58;;;;
2021/11/14 00:09:58;;;;;;;16.5;10.45;;;;;;;6.88;97.27832;95104.58;;;;
2021/11/14 00:11:00;;;;;;;16.5;10.45;;;;;;;6.88;97.27832;95104.58;;;;
2021/11/14 00:12:04;;;;;;;16.5;10.45;;;;;;;6.88;97.27832;95104.58;;;;
2021/11/14 00:13:06;;;;;;;16.5;10.45;;;;;;;6.88;97.27832;95104.58;;;;
2021/11/14 00:14:06;;;;;;;16.5;10.45;;;;;;;6.88;97.27832;95104.58;;;;
2021/11/14 00:15:07;;;;;;;16.5;10.45;;;;;;;6.88;97.27832;95104.58;;;;
2021/11/14 00:16:10;;;;;;;16.5;10.45;;;;;;;6.88;97.27832;95104.58;;;;
2021/11/14 00:17:13;;;;;;;16.5;10.45;;;;;;;6.88;97.27832;95104.58;;;;
2021/11/14 00:18:14;;;;;;;12;9.949999;;;;;;;6.88;97.46973;95096.44;;;;
2021/11/14 00:19:14;;;;;;;12;9.949999;;;;;;;6.88;97.46973;95096.44;;;;
2021/11/14 00:20:16;;;;;;;12;9.949999;;;;;;;6.88;97.46973;95096.44;;;;
2021/11/14 00:21:18;;;;;;;12;9.949999;;;;;;;6.88;97.46973;95096.44;;;;
2021/11/14 00:22:23;;;;;;;12;9.949999;;;;;;;6.88;97.46973;95096.44;;;;
2021/11/14 00:23:23;;;;;;;12;9.949999;;;;;;;6.88;97.46973;95096.44;;;;
2021/11/14 00:24:24;;;;;;;12;9.949999;;;;;;;6.88;97.46973;95096.44;;;;
2021/11/14 00:25:25;;;;;;;12;9.949999;;;;;;;6.88;97.46973;95096.44;;;;
2021/11/14 00:26:26;;;;;;;12;9.949999;;;;;;;6.88;97.46973;95096.44;;;;
2021/11/14 00:27:26;;;;;;;12;9.949999;;;;;;;6.88;97.46973;95096.44;;;;
2021/11/14 00:28:27;;;;;;;12.9;10.3;;;;;;;6.88;97.7207;95091.58;;;;
2021/11/14 00:29:28;;;;;;;12.9;10.3;;;;;;;6.88;97.7207;95091.58;;;;
2021/11/14 00:30:28;;;;;;;12.9;10.3;;;;;;;6.88;97.7207;95091.58;;;;
2021/11/14 00:31:29;;;;;;;12.9;10.3;;;;;;;6.88;97.7207;95091.58;;;;
2021/11/14 00:32:30;;;;;;;12.9;10.3;;;;;;;6.88;97.7207;95091.58;;;;
2021/11/14 00:33:31;;;;;;;12.9;10.3;;;;;;;6.88;97.7207;95091.58;;;;
2021/11/14 00:34:34;;;;;;;12.9;10.3;;;;;;;6.88;97.7207;95091.58;;;;
2021/11/14 00:35:35;;;;;;;12.9;10.3;;;;;;;6.88;97.7207;95091.58;;;;
2021/11/14 00:36:37;;;;;;;12.9;10.3;;;;;;;6.88;97.7207;95091.58;;;;
2021/11/14 00:37:39;;;;;;;12.9;10.3;;;;;;;6.88;97.7207;95091.58;;;;
2021/11/14 00:38:40;;;;;;;12.9;10.3;;;;;;;6.88;97.7207;95091.58;;;;
2021/11/14 00:39:41;;;;;;;14.15;10.7;;;;;;;6.78;97.97363;95090.84;;;;
2021/11/14 00:40:43;;;;;;;14.15;10.7;;;;;;;6.78;97.97363;95090.84;;;;
2021/11/14 00:41:43;;;;;;;14.15;10.7;;;;;;;6.78;97.97363;95090.84;;;;
2021/11/14 00:42:44;;;;;;;14.15;10.7;;;;;;;6.78;97.97363;95090.84;;;;
2021/11/14 00:43:45;;;;;;;14.15;10.7;;;;;;;6.78;97.97363;95090.84;;;;
2021/11/14 00:44:46;;;;;;;14.15;10.7;;;;;;;6.78;97.97363;95090.84;;;;
2021/11/14 00:45:47;;;;;;;14.15;10.7;;;;;;;6.78;97.97363;95090.84;;;;
2021/11/14 00:46:48;;;;;;;14.15;10.7;;;;;;;6.78;97.97363;95090.84;;;;
2021/11/14 00:47:49;;;;;;;14.15;10.7;;;;;;;6.78;97.97363;95090.84;;;;
2021/11/14 00:48:51;;;;;;;14.15;10.7;;;;;;;6.78;97.97363;95090.84;;;;
2021/11/14 00:49:52;;;;;;;13.85;10.75;;;;;;;6.72;98.56152;95100.58;;;;
2021/11/14 00:50:53;;;;;;;13.85;10.75;;;;;;;6.72;98.56152;95100.58;;;;
2021/11/14 00:51:53;;;;;;;13.85;10.75;;;;;;;6.72;98.56152;95100.58;;;;
2021/11/14 00:52:56;;;;;;;13.85;10.75;;;;;;;6.72;98.56152;95100.58;;;;
2021/11/14 00:53:57;;;;;;;13.85;10.75;;;;;;;6.72;98.56152;95100.58;;;;
2021/11/14 00:54:59;;;;;;;13.85;10.75;;;;;;;6.72;98.56152;95100.58;;;;
2021/11/14 00:56:00;;;;;;;13.85;10.75;;;;;;;6.72;98.56152;95100.58;;;;
2021/11/14 00:57:01;;;;;;;13.85;10.75;;;;;;;6.72;98.56152;95100.58;;;;
2021/11/14 00:58:02;;;;;;;13.85;10.75;;;;;;;6.72;98.56152;95100.58;;;;
2021/11/14 00:59:03;;;;;;;13.85;10.75;;;;;;;6.72;98.56152;95100.58;;;;
2021/11/14 01:00:03;;;;;;;13.85;10.75;;;;;;;6.72;98.56152;95100.58;;;;
2021/11/14 01:01:11;;;;;;;17.15;12.7;;;;;;;6.69;98.92285;95109.45;;;;
2021/11/14 01:02:11;;;;;;;17.15;12.7;;;;;;;6.69;98.92285;95109.45;;;;
2021/11/14 01:03:12;;;;;;;17.15;12.7;;;;;;;6.69;98.92285;95109.45;;;;
2021/11/14 01:04:13;;;;;;;17.15;12.7;;;;;;;6.69;98.92285;95109.45;;;;
2021/11/14 01:05:14;;;;;;;17.15;12.7;;;;;;;6.69;98.92285;95109.45;;;;
2021/11/14 01:06:17;;;;;;;17.15;12.7;;;;;;;6.69;98.92285;95109.45;;;;
2021/11/14 01:07:18;;;;;;;17.15;12.7;;;;;;;6.69;98.92285;95109.45;;;;
2021/11/14 01:08:18;;;;;;;17.15;12.7;;;;;;;6.69;98.92285;95109.45;;;;
2021/11/14 01:09:19;;;;;;;17.15;12.7;;;;;;;6.69;98.92285;95109.45;;;;
2021/11/14 01:10:20;;;;;;;17.15;12.7;;;;;;;6.69;98.92285;95109.45;;;;
2021/11/14 01:11:24;;;;;;;15.3;12.6;;;;;;;6.71;99.4834;95115.01;;;;
2021/11/14 01:12:24;;;;;;;15.3;12.6;;;;;;;6.71;99.4834;95115.01;;;;
2021/11/14 01:13:25;;;;;;;15.3;12.6;;;;;;;6.71;99.4834;95115.01;;;;
2021/11/14 01:14:26;;;;;;;15.3;12.6;;;;;;;6.71;99.4834;95115.01;;;;
2021/11/14 01:15:27;;;;;;;15.3;12.6;;;;;;;6.71;99.4834;95115.01;;;;
2021/11/14 01:16:29;;;;;;;15.3;12.6;;;;;;;6.71;99.4834;95115.01;;;;
2021/11/14 01:17:30;;;;;;;15.3;12.6;;;;;;;6.71;99.4834;95115.01;;;;
2021/11/14 01:18:32;;;;;;;15.3;12.6;;;;;;;6.71;99.4834;95115.01;;;;
2021/11/14 01:19:33;;;;;;;15.3;12.6;;;;;;;6.71;99.4834;95115.01;;;;
2021/11/14 01:20:33;;;;;;;15.3;12.6;;;;;;;6.71;99.4834;95115.01;;;;
2021/11/14 01:21:38;;;;;;;16.8;12.65;;;;;;;6.81;99.8252;95114.45;;;;
2021/11/14 01:22:39;;;;;;;16.8;12.65;;;;;;;6.81;99.8252;95114.45;;;;
2021/11/14 01:23:40;;;;;;;16.8;12.65;;;;;;;6.81;99.8252;95114.45;;;;
2021/11/14 01:24:42;;;;;;;16.8;12.65;;;;;;;6.81;99.8252;95114.45;;;;
2021/11/14 01:25:44;;;;;;;16.8;12.65;;;;;;;6.81;99.8252;95114.45;;;;
2021/11/14 01:26:45;;;;;;;16.8;12.65;;;;;;;6.81;99.8252;95114.45;;;;
2021/11/14 01:27:45;;;;;;;16.8;12.65;;;;;;;6.81;99.8252;95114.45;;;;
2021/11/14 01:28:46;;;;;;;16.8;12.65;;;;;;;6.81;99.8252;95114.45;;;;
2021/11/14 01:29:47;;;;;;;16.8;12.65;;;;;;;6.81;99.8252;95114.45;;;;
2021/11/14 01:30:48;;;;;;;16.8;12.65;;;;;;;6.81;99.8252;95114.45;;;;
2021/11/14 01:31:51;;;;;;;16.8;12.65;;;;;;;6.81;99.8252;95114.45;;;;
2021/11/14 01:32:51;;;;;;;18.65;13;;;;;;;6.9;99.86328;95122.64;;;;
2021/11/14 01:33:54;;;;;;;18.65;13;;;;;;;6.9;99.86328;95122.64;;;;
2021/11/14 01:34:54;;;;;;;18.65;13;;;;;;;6.9;99.86328;95122.64;;;;
2021/11/14 01:35:55;;;;;;;18.65;13;;;;;;;6.9;99.86328;95122.64;;;;
2021/11/14 01:36:57;;;;;;;18.65;13;;;;;;;6.9;99.86328;95122.64;;;;
2021/11/14 01:37:58;;;;;;;18.65;13;;;;;;;6.9;99.86328;95122.64;;;;
2021/11/14 01:38:59;;;;;;;18.65;13;;;;;;;6.9;99.86328;95122.64;;;;
2021/11/14 01:40:00;;;;;;;18.65;13;;;;;;;6.9;99.86328;95122.64;;;;
2021/11/14 01:41:01;;;;;;;18.65;13;;;;;;;6.9;99.86328;95122.64;;;;
2021/11/14 01:42:06;;;;;;;18.65;13;;;;;;;6.9;99.86328;95122.64;;;;
2021/11/14 01:43:07;;;;;;;17.85;13.05;;;;;;;6.96;100;95120.86;;;;
2021/11/14 01:44:13;;;;;;;17.85;13.05;;;;;;;6.96;100;95120.86;;;;
2021/11/14 01:45:14;;;;;;;17.85;13.05;;;;;;;6.96;100;95120.86;;;;
2021/11/14 01:46:16;;;;;;;17.85;13.05;;;;;;;6.96;100;95120.86;;;;
2021/11/14 01:47:17;;;;;;;17.85;13.05;;;;;;;6.96;100;95120.86;;;;
2021/11/14 01:48:18;;;;;;;17.85;13.05;;;;;;;6.96;100;95120.86;;;;
2021/11/14 01:49:19;;;;;;;17.85;13.05;;;;;;;6.96;100;95120.86;;;;
2021/11/14 01:50:20;;;;;;;17.85;13.05;;;;;;;6.96;100;95120.86;;;;
2021/11/14 01:51:21;;;;;;;17.85;13.05;;;;;;;6.96;100;95120.86;;;;
2021/11/14 01:52:22;;;;;;;17.85;13.05;;;;;;;6.96;100;95120.86;;;;
2021/11/14 01:53:25;;;;;;;17.85;13.05;;;;;;;6.96;100;95120.86;;;;
2021/11/14 01:54:29;;;;;;;17.9;13.25;;;;;;;7;100;95117.22;;;;
2021/11/14 01:55:29;;;;;;;17.9;13.25;;;;;;;7;100;95117.22;;;;
2021/11/14 01:56:32;;;;;;;17.9;13.25;;;;;;;7;100;95117.22;;;;
2021/11/14 01:57:33;;;;;;;17.9;13.25;;;;;;;7;100;95117.22;;;;
2021/11/14 01:58:34;;;;;;;17.9;13.25;;;;;;;7;100;95117.22;;;;
2021/11/14 01:59:37;;;;;;;17.9;13.25;;;;;;;7;100;95117.22;;;;
2021/11/14 02:00:38;;;;;;;17.9;13.25;;;;;;;7;100;95117.22;;;;
2021/11/14 02:01:42;;;;;;;17.9;13.25;;;;;;;7;100;95117.22;;;;
2021/11/14 02:02:43;;;;;;;17.9;13.25;;;;;;;7;100;95117.22;;;;
2021/11/14 02:03:43;;;;;;;17.9;13.25;;;;;;;7;100;95117.22;;;;
2021/11/14 02:04:47;;;;;;;21;15.25;;;;;;;7.03;100;95113.16;;;;
2021/11/14 02:05:48;;;;;;;21;15.25;;;;;;;7.03;100;95113.16;;;;
2021/11/14 02:06:49;;;;;;;21;15.25;;;;;;;7.03;100;95113.16;;;;
2021/11/14 02:07:50;;;;;;;21;15.25;;;;;;;7.03;100;95113.16;;;;
2021/11/14 02:08:51;;;;;;;21;15.25;;;;;;;7.03;100;95113.16;;;;
2021/11/14 02:09:52;;;;;;;21;15.25;;;;;;;7.03;100;95113.16;;;;
2021/11/14 02:10:54;;;;;;;21;15.25;;;;;;;7.03;100;95113.16;;;;
2021/11/14 02:11:54;;;;;;;21;15.25;;;;;;;7.03;100;95113.16;;;;
2021/11/14 02:12:55;;;;;;;21;15.25;;;;;;;7.03;100;95113.16;;;;
2021/11/14 02:13:56;;;;;;;21;15.25;;;;;;;7.03;100;95113.16;;;;
2021/11/14 02:14:57;;;;;;;19.05;14.6;;;;;;;7.06;100;95115.39;;;;
2021/11/14 02:15:59;;;;;;;19.05;14.6;;;;;;;7.06;100;95115.39;;;;
2021/11/14 02:16:59;;;;;;;19.05;14.6;;;;;;;7.06;100;95115.39;;;;
2021/11/14 02:18:02;;;;;;;19.05;14.6;;;;;;;7.06;100;95115.39;;;;
2021/11/14 02:19:03;;;;;;;19.05;14.6;;;;;;;7.06;100;95115.39;;;;
2021/11/14 02:20:04;;;;;;;19.05;14.6;;;;;;;7.06;100;95115.39;;;;
2021/11/14 02:21:08;;;;;;;19.05;14.6;;;;;;;7.06;100;95115.39;;;;
2021/11/14 02:22:09;;;;;;;19.05;14.6;;;;;;;7.06;100;95115.39;;;;
2021/11/14 02:23:11;;;;;;;19.05;14.6;;;;;;;7.06;100;95115.39;;;;
2021/11/14 02:24:14;;;;;;;19.05;14.6;;;;;;;7.06;100;95115.39;;;;
2021/11/14 02:25:14;;;;;;;19.05;14.6;;;;;;;7.06;100;95115.39;;;;
2021/11/14 02:26:18;;;;;;;19.05;14.6;;;;;;;7.06;100;95115.39;;;;
2021/11/14 02:27:19;;;;;;;19.05;14.6;;;;;;;7.06;100;95115.39;;;;
2021/11/14 02:28:19;;;;;;;19.05;14.6;;;;;;;7.06;100;95115.39;;;;
2021/11/14 02:29:22;;;;;;;19.05;14.6;;;;;;;7.06;100;95115.39;;;;
2021/11/14 02:30:22;;;;;;;19.05;14.6;;;;;;;7.06;100;95115.39;;;;
2021/11/14 02:31:25;;;;;;;19.05;14.6;;;;;;;7.06;100;95115.39;;;;
2021/11/14 02:32:27;;;;;;;19.05;14.6;;;;;;;7.06;100;95115.39;;;;
2021/11/14 02:33:28;;;;;;;19.05;14.6;;;;;;;7.06;100;95115.39;;;;
2021/11/14 02:34:29;;;;;;;19.05;14.6;;;;;;;7.06;100;95115.39;;;;
2021/11/14 02:35:30;;;;;;;19.05;14.6;;;;;;;7.06;100;95115.39;;;;
2021/11/14 02:36:33;;;;;;;22.84999;16.65;;;;;;;7.1;100;95108.04;;;;
2021/11/14 02:37:33;;;;;;;22.84999;16.65;;;;;;;7.1;100;95108.04;;;;
2021/11/14 02:38:35;;;;;;;22.84999;16.65;;;;;;;7.1;100;95108.04;;;;
2021/11/14 02:39:36;;;;;;;22.84999;16.65;;;;;;;7.1;100;95108.04;;;;
2021/11/14 02:40:36;;;;;;;22.84999;16.65;;;;;;;7.1;100;95108.04;;;;
2021/11/14 02:41:38;;;;;;;22.84999;16.65;;;;;;;7.1;100;95108.04;;;;
2021/11/14 02:42:38;;;;;;;22.84999;16.65;;;;;;;7.1;100;95108.04;;;;
2021/11/14 02:43:40;;;;;;;22.84999;16.65;;;;;;;7.1;100;95108.04;;;;
2021/11/14 02:44:46;;;;;;;22.84999;16.65;;;;;;;7.1;100;95108.04;;;;
2021/11/14 02:45:46;;;;;;;22.84999;16.65;;;;;;;7.1;100;95108.04;;;;
2021/11/14 02:46:47;;;;;;;22.84999;16.65;;;;;;;7.1;100;95108.04;;;;
2021/11/14 02:47:48;;;;;;;19.65;14.9;;;;;;;7.12;100;95108.75;;;;
2021/11/14 02:48:50;;;;;;;19.65;14.9;;;;;;;7.12;100;95108.75;;;;
2021/11/14 02:49:52;;;;;;;19.65;14.9;;;;;;;7.12;100;95108.75;;;;
2021/11/14 02:50:52;;;;;;;19.65;14.9;;;;;;;7.12;100;95108.75;;;;
2021/11/14 02:51:55;;;;;;;19.65;14.9;;;;;;;7.12;100;95108.75;;;;
2021/11/14 02:52:56;;;;;;;19.65;14.9;;;;;;;7.12;100;95108.75;;;;
2021/11/14 02:53:57;;;;;;;19.65;14.9;;;;;;;7.12;100;95108.75;;;;
2021/11/14 02:55:00;;;;;;;19.65;14.9;;;;;;;7.12;100;95108.75;;;;
2021/11/14 02:56:01;;;;;;;19.65;14.9;;;;;;;7.12;100;95108.75;;;;
2021/11/14 02:57:02;;;;;;;19.65;14.9;;;;;;;7.12;100;95108.75;;;;
2021/11/14 02:58:03;;;;;;;18.4;14.65;;;;;;;7.14;100;95104.78;;;;
2021/11/14 02:59:04;;;;;;;18.4;14.65;;;;;;;7.14;100;95104.78;;;;
2021/11/14 03:00:05;;;;;;;18.4;14.65;;;;;;;7.14;100;95104.78;;;;
2021/11/14 03:01:10;;;;;;;18.4;14.65;;;;;;;7.14;100;95104.78;;;;
2021/11/14 03:02:13;;;;;;;18.4;14.65;;;;;;;7.14;100;95104.78;;;;
2021/11/14 03:03:14;;;;;;;18.4;14.65;;;;;;;7.14;100;95104.78;;;;
2021/11/14 03:04:17;;;;;;;18.4;14.65;;;;;;;7.14;100;95104.78;;;;
2021/11/14 03:05:21;;;;;;;18.4;14.65;;;;;;;7.14;100;95104.78;;;;
2021/11/14 03:06:23;;;;;;;18.4;14.65;;;;;;;7.14;100;95104.78;;;;
2021/11/14 03:07:26;;;;;;;18.4;14.65;;;;;;;7.14;100;95104.78;;;;
2021/11/14 03:08:29;;;;;;;16.65;13.2;;;;;;;7.17;100;95107.47;;;;
2021/11/14 03:09:30;;;;;;;16.65;13.2;;;;;;;7.17;100;95107.47;;;;
2021/11/14 03:10:33;;;;;;;16.65;13.2;;;;;;;7.17;100;95107.47;;;;
2021/11/14 03:11:34;;;;;;;16.65;13.2;;;;;;;7.17;100;95107.47;;;;
2021/11/14 03:12:35;;;;;;;16.65;13.2;;;;;;;7.17;100;95107.47;;;;
2021/11/14 03:13:36;;;;;;;16.65;13.2;;;;;;;7.17;100;95107.47;;;;
2021/11/14 03:14:37;;;;;;;16.65;13.2;;;;;;;7.17;100;95107.47;;;;
2021/11/14 03:15:37;;;;;;;16.65;13.2;;;;;;;7.17;100;95107.47;;;;
2021/11/14 03:16:42;;;;;;;16.65;13.2;;;;;;;7.17;100;95107.47;;;;
2021/11/14 03:17:43;;;;;;;16.65;13.2;;;;;;;7.17;100;95107.47;;;;
2021/11/14 03:18:44;;;;;;;16.65;13.2;;;;;;;7.17;100;95107.47;;;;
2021/11/14 03:19:44;;;;;;;17.1;13.15;;;;;;;7.19;100;95106.83;;;;
2021/11/14 03:20:45;;;;;;;17.1;13.15;;;;;;;7.19;100;95106.83;;;;
2021/11/14 03:21:48;;;;;;;17.1;13.15;;;;;;;7.19;100;95106.83;;;;
2021/11/14 03:22:49;;;;;;;17.1;13.15;;;;;;;7.19;100;95106.83;;;;
2021/11/14 03:23:50;;;;;;;17.1;13.15;;;;;;;7.19;100;95106.83;;;;
2021/11/14 03:24:52;;;;;;;17.1;13.15;;;;;;;7.19;100;95106.83;;;;
2021/11/14 03:25:53;;;;;;;17.1;13.15;;;;;;;7.19;100;95106.83;;;;
2021/11/14 03:26:55;;;;;;;17.1;13.15;;;;;;;7.19;100;95106.83;;;;
2021/11/14 03:27:56;;;;;;;17.1;13.15;;;;;;;7.19;100;95106.83;;;;
2021/11/14 03:28:57;;;;;;;17.1;13.15;;;;;;;7.19;100;95106.83;;;;
2021/11/14 03:29:58;;;;;;;14.35;11.75;;;;;;;7.13;100;95115.23;;;;
2021/11/14 03:30:58;;;;;;;14.35;11.75;;;;;;;7.13;100;95115.23;;;;
2021/11/14 03:31:59;;;;;;;14.35;11.75;;;;;;;7.13;100;95115.23;;;;
2021/11/14 03:33:00;;;;;;;14.35;11.75;;;;;;;7.13;100;95115.23;;;;
2021/11/14 03:34:02;;;;;;;14.35;11.75;;;;;;;7.13;100;95115.23;;;;
2021/11/14 03:35:03;;;;;;;14.35;11.75;;;;;;;7.13;100;95115.23;;;;
2021/11/14 03:36:04;;;;;;;14.35;11.75;;;;;;;7.13;100;95115.23;;;;
2021/11/14 03:37:07;;;;;;;14.35;11.75;;;;;;;7.13;100;95115.23;;;;
2021/11/14 03:38:13;;;;;;;14.35;11.75;;;;;;;7.13;100;95115.23;;;;
2021/11/14 03:39:15;;;;;;;14.35;11.75;;;;;;;7.13;100;95115.23;;;;
2021/11/14 03:40:16;;;;;;;16.15;12.5;;;;;;;7.08;100;95120.45;;;;
2021/11/14 03:41:18;;;;;;;16.15;12.5;;;;;;;7.08;100;95120.45;;;;
2021/11/14 03:42:21;;;;;;;16.15;12.5;;;;;;;7.08;100;95120.45;;;;
2021/11/14 03:43:22;;;;;;;16.15;12.5;;;;;;;7.08;100;95120.45;;;;
2021/11/14 03:44:22;;;;;;;16.15;12.5;;;;;;;7.08;100;95120.45;;;;
2021/11/14 03:45:23;;;;;;;16.15;12.5;;;;;;;7.08;100;95120.45;;;;
2021/11/14 03:46:23;;;;;;;16.15;12.5;;;;;;;7.08;100;95120.45;;;;
2021/11/14 03:47:25;;;;;;;16.15;12.5;;;;;;;7.08;100;95120.45;;;;
2021/11/14 03:48:26;;;;;;;16.15;12.5;;;;;;;7.08;100;95120.45;;;;
2021/11/14 03:49:27;;;;;;;16.15;12.5;;;;;;;7.08;100;95120.45;;;;
2021/11/14 03:50:27;;;;;;;16.15;12.5;;;;;;;7.08;100;95120.45;;;;
2021/11/14 03:51:29;;;;;;;16.15;12.5;;;;;;;7.08;100;95120.45;;;;
2021/11/14 03:52:29;;;;;;;16.15;12.5;;;;;;;7.08;100;95120.45;;;;
2021/11/14 03:53:30;;;;;;;16.15;12.5;;;;;;;7.08;100;95120.45;;;;
2021/11/14 03:54:31;;;;;;;16.15;12.5;;;;;;;7.08;100;95120.45;;;;
2021/11/14 03:55:31;;;;;;;16.15;12.5;;;;;;;7.08;100;95120.45;;;;
2021/11/14 03:56:32;;;;;;;16.15;12.5;;;;;;;7.08;100;95120.45;;;;
2021/11/14 03:57:33;;;;;;;16.15;12.5;;;;;;;7.08;100;95120.45;;;;
2021/11/14 03:58:34;;;;;;;16.15;12.5;;;;;;;7.08;100;95120.45;;;;
2021/11/14 03:59:36;;;;;;;16.15;12.5;;;;;;;7.08;100;95120.45;;;;
2021/11/14 04:00:37;;;;;;;16.15;12.5;;;;;;;7.08;100;95120.45;;;;
2021/11/14 04:01:41;;;;;;;19;13.75;;;;;;;7.13;100;95119.78;;;;
2021/11/14 04:02:42;;;;;;;19;13.75;;;;;;;7.13;100;95119.78;;;;
2021/11/14 04:03:44;;;;;;;19;13.75;;;;;;;7.13;100;95119.78;;;;
2021/11/14 04:04:46;;;;;;;19;13.75;;;;;;;7.13;100;95119.78;;;;
2021/11/14 04:05:47;;;;;;;19;13.75;;;;;;;7.13;100;95119.78;;;;
2021/11/14 04:06:47;;;;;;;19;13.75;;;;;;;7.13;100;95119.78;;;;
2021/11/14 04:07:48;;;;;;;19;13.75;;;;;;;7.13;100;95119.78;;;;
2021/11/14 04:08:49;;;;;;;19;13.75;;;;;;;7.13;100;95119.78;;;;
2021/11/14 04:09:49;;;;;;;19;13.75;;;;;;;7.13;100;95119.78;;;;
2021/11/14 04:10:50;;;;;;;19;13.75;;;;;;;7.13;100;95119.78;;;;
2021/11/14 04:11:53;;;;;;;19;13.75;;;;;;;7.13;100;95119.78;;;;
2021/11/14 04:12:54;;;;;;;19;13.75;;;;;;;7.13;100;95119.78;;;;
2021/11/14 04:13:55;;;;;;;19;13.75;;;;;;;7.13;100;95119.78;;;;
2021/11/14 04:14:55;;;;;;;19;13.75;;;;;;;7.13;100;95119.78;;;;
2021/11/14 04:15:56;;;;;;;19;13.75;;;;;;;7.13;100;95119.78;;;;
2021/11/14 04:16:57;;;;;;;19;13.75;;;;;;;7.13;100;95119.78;;;;
2021/11/14 04:17:58;;;;;;;19;13.75;;;;;;;7.13;100;95119.78;;;;
2021/11/14 04:18:58;;;;;;;19;13.75;;;;;;;7.13;100;95119.78;;;;
2021/11/14 04:19:59;;;;;;;19;13.75;;;;;;;7.13;100;95119.78;;;;
2021/11/14 04:21:00;;;;;;;19;13.75;;;;;;;7.13;100;95119.78;;;;
2021/11/14 04:22:00;;;;;;;19;13.75;;;;;;;7.13;100;95119.78;;;;
2021/11/14 04:23:01;;;;;;;17.25;13.35;;;;;;;7.1;100;95124.25;;;;
2021/11/14 04:24:03;;;;;;;17.25;13.35;;;;;;;7.1;100;95124.25;;;;
2021/11/14 04:25:04;;;;;;;17.25;13.35;;;;;;;7.1;100;95124.25;;;;
2021/11/14 04:26:08;;;;;;;17.25;13.35;;;;;;;7.1;100;95124.25;;;;
2021/11/14 04:27:09;;;;;;;17.25;13.35;;;;;;;7.1;100;95124.25;;;;
2021/11/14 04:28:11;;;;;;;17.25;13.35;;;;;;;7.1;100;95124.25;;;;
2021/11/14 04:29:13;;;;;;;17.25;13.35;;;;;;;7.1;100;95124.25;;;;
2021/11/14 04:30:14;;;;;;;17.25;13.35;;;;;;;7.1;100;95124.25;;;;
2021/11/14 04:31:16;;;;;;;17.25;13.35;;;;;;;7.1;100;95124.25;;;;
2021/11/14 04:32:16;;;;;;;17.25;13.35;;;;;;;7.1;100;95124.25;;;;
2021/11/14 04:33:17;;;;;;;17.25;13.35;;;;;;;7.1;100;95124.25;;;;
2021/11/14 04:34:19;;;;;;;20.3;14;;;;;;;7.01;100;95124.63;;;;
2021/11/14 04:35:20;;;;;;;20.3;14;;;;;;;7.01;100;95124.63;;;;
2021/11/14 04:36:21;;;;;;;20.3;14;;;;;;;7.01;100;95124.63;;;;
2021/11/14 04:37:22;;;;;;;20.3;14;;;;;;;7.01;100;95124.63;;;;
2021/11/14 04:38:22;;;;;;;20.3;14;;;;;;;7.01;100;95124.63;;;;
2021/11/14 04:39:23;;;;;;;20.3;14;;;;;;;7.01;100;95124.63;;;;
2021/11/14 04:40:24;;;;;;;20.3;14;;;;;;;7.01;100;95124.63;;;;
2021/11/14 04:41:26;;;;;;;20.3;14;;;;;;;7.01;100;95124.63;;;;
2021/11/14 04:42:26;;;;;;;20.3;14;;;;;;;7.01;100;95124.63;;;;
2021/11/14 04:43:27;;;;;;;20.3;14;;;;;;;7.01;100;95124.63;;;;
2021/11/14 04:44:27;;;;;;;19.3;13.95;;;;;;;6.91;100;95130.47;;;;
2021/11/14 04:45:28;;;;;;;19.3;13.95;;;;;;;6.91;100;95130.47;;;;
2021/11/14 04:46:29;;;;;;;19.3;13.95;;;;;;;6.91;100;95130.47;;;;
2021/11/14 04:47:30;;;;;;;19.3;13.95;;;;;;;6.91;100;95130.47;;;;
2021/11/14 04:48:30;;;;;;;19.3;13.95;;;;;;;6.91;100;95130.47;;;;
2021/11/14 04:49:31;;;;;;;19.3;13.95;;;;;;;6.91;100;95130.47;;;;
2021/11/14 04:50:32;;;;;;;19.3;13.95;;;;;;;6.91;100;95130.47;;;;
2021/11/14 04:51:33;;;;;;;19.3;13.95;;;;;;;6.91;100;95130.47;;;;
2021/11/14 04:52:34;;;;;;;19.3;13.95;;;;;;;6.91;100;95130.47;;;;
2021/11/14 04:53:34;;;;;;;19.3;13.95;;;;;;;6.91;100;95130.47;;;;
2021/11/14 04:54:35;;;;;;;19.3;13.95;;;;;;;6.91;100;95130.47;;;;
2021/11/14 04:55:36;;;;;;;24;15.65;;;;;;;6.92;100;95130.79;;;;
2021/11/14 04:56:37;;;;;;;24;15.65;;;;;;;6.92;100;95130.79;;;;
2021/11/14 04:57:38;;;;;;;24;15.65;;;;;;;6.92;100;95130.79;;;;
2021/11/14 04:58:39;;;;;;;24;15.65;;;;;;;6.92;100;95130.79;;;;
2021/11/14 04:59:40;;;;;;;24;15.65;;;;;;;6.92;100;95130.79;;;;
2021/11/14 05:00:40;;;;;;;24;15.65;;;;;;;6.92;100;95130.79;;;;
2021/11/14 05:01:43;;;;;;;24;15.65;;;;;;;6.92;100;95130.79;;;;
2021/11/14 05:02:45;;;;;;;24;15.65;;;;;;;6.92;100;95130.79;;;;
2021/11/14 05:03:45;;;;;;;24;15.65;;;;;;;6.92;100;95130.79;;;;
2021/11/14 05:04:46;;;;;;;24;15.65;;;;;;;6.92;100;95130.79;;;;
2021/11/14 05:05:46;;;;;;;24;15.65;;;;;;;6.92;100;95130.79;;;;
2021/11/14 05:06:47;;;;;;;24;15.65;;;;;;;6.92;100;95130.79;;;;
2021/11/14 05:07:48;;;;;;;24;15.65;;;;;;;6.92;100;95130.79;;;;
2021/11/14 05:08:49;;;;;;;24;15.65;;;;;;;6.92;100;95130.79;;;;
2021/11/14 05:09:50;;;;;;;24;15.65;;;;;;;6.92;100;95130.79;;;;
2021/11/14 05:10:51;;;;;;;24;15.65;;;;;;;6.92;100;95130.79;;;;
2021/11/14 05:11:51;;;;;;;24;15.65;;;;;;;6.92;100;95130.79;;;;
2021/11/14 05:12:52;;;;;;;24;15.65;;;;;;;6.92;100;95130.79;;;;
2021/11/14 05:13:53;;;;;;;24;15.65;;;;;;;6.92;100;95130.79;;;;
2021/11/14 05:14:53;;;;;;;24;15.65;;;;;;;6.92;100;95130.79;;;;
2021/11/14 05:15:54;;;;;;;24;15.65;;;;;;;6.92;100;95130.79;;;;
2021/11/14 05:16:54;;;;;;;24;15.65;;;;;;;6.92;100;95130.79;;;;
2021/11/14 05:17:55;;;;;;;24;15.65;;;;;;;6.92;100;95130.79;;;;
2021/11/14 05:18:55;;;;;;;24;15.65;;;;;;;6.92;100;95130.79;;;;
2021/11/14 05:19:56;;;;;;;24;15.65;;;;;;;6.92;100;95130.79;;;;
2021/11/14 05:20:57;;;;;;;24;15.65;;;;;;;6.92;100;95130.79;;;;
2021/11/14 05:21:57;;;;;;;24;15.65;;;;;;;6.92;100;95130.79;;;;
2021/11/14 05:22:58;;;;;;;24;15.65;;;;;;;6.92;100;95130.79;;;;
2021/11/14 05:23:58;;;;;;;24;15.65;;;;;;;6.92;100;95130.79;;;;
2021/11/14 05:24:59;;;;;;;24;15.65;;;;;;;6.92;100;95130.79;;;;
2021/11/14 05:25:59;;;;;;;24;15.65;;;;;;;6.92;100;95130.79;;;;
2021/11/14 05:27:00;;;;;;;19.25;13.95;;;;;;;6.83;100;95141.49;;;;
2021/11/14 05:28:00;;;;;;;19.25;13.95;;;;;;;6.83;100;95141.49;;;;
2021/11/14 05:29:01;;;;;;;19.25;13.95;;;;;;;6.83;100;95141.49;;;;
2021/11/14 05:30:02;;;;;;;19.25;13.95;;;;;;;6.83;100;95141.49;;;;
2021/11/14 05:31:06;;;;;;;19.25;13.95;;;;;;;6.83;100;95141.49;;;;
2021/11/14 05:32:07;;;;;;;19.25;13.95;;;;;;;6.83;100;95141.49;;;;
2021/11/14 05:33:08;;;;;;;19.25;13.95;;;;;;;6.83;100;95141.49;;;;
2021/11/14 05:34:09;;;;;;;19.25;13.95;;;;;;;6.83;100;95141.49;;;;
2021/11/14 05:35:10;;;;;;;19.25;13.95;;;;;;;6.83;100;95141.49;;;;
2021/11/14 05:36:11;;;;;;;19.25;13.95;;;;;;;6.83;100;95141.49;;;;
2021/11/14 05:37:12;;;;;;;19.25;13.95;;;;;;;6.83;100;95141.49;;;;
2021/11/14 05:38:12;;;;;;;18.8;13.65;;;;;;;6.84;100;95151.67;;;;
2021/11/14 05:39:15;;;;;;;18.8;13.65;;;;;;;6.84;100;95151.67;;;;
2021/11/14 05:40:15;;;;;;;18.8;13.65;;;;;;;6.84;100;95151.67;;;;
2021/11/14 05:41:16;;;;;;;18.8;13.65;;;;;;;6.84;100;95151.67;;;;
2021/11/14 05:42:17;;;;;;;18.8;13.65;;;;;;;6.84;100;95151.67;;;;
2021/11/14 05:43:18;;;;;;;18.8;13.65;;;;;;;6.84;100;95151.67;;;;
2021/11/14 05:44:18;;;;;;;18.8;13.65;;;;;;;6.84;100;95151.67;;;;
2021/11/14 05:45:19;;;;;;;18.8;13.65;;;;;;;6.84;100;95151.67;;;;
2021/11/14 05:46:19;;;;;;;18.8;13.65;;;;;;;6.84;100;95151.67;;;;
2021/11/14 05:47:20;;;;;;;18.8;13.65;;;;;;;6.84;100;95151.67;;;;
2021/11/14 05:48:21;;;;;;;18.8;13.65;;;;;;;6.84;100;95151.67;;;;
2021/11/14 05:49:21;;;;;;;20.4;14;;;;;;;6.84;100;95160.14;;;;
2021/11/14 05:50:22;;;;;;;20.4;14;;;;;;;6.84;100;95160.14;;;;
2021/11/14 05:51:23;;;;;;;20.4;14;;;;;;;6.84;100;95160.14;;;;
2021/11/14 05:52:24;;;;;;;20.4;14;;;;;;;6.84;100;95160.14;;;;
2021/11/14 05:53:24;;;;;;;20.4;14;;;;;;;6.84;100;95160.14;;;;
2021/11/14 05:54:25;;;;;;;20.4;14;;;;;;;6.84;100;95160.14;;;;
2021/11/14 05:55:25;;;;;;;20.4;14;;;;;;;6.84;100;95160.14;;;;
2021/11/14 05:56:26;;;;;;;20.4;14;;;;;;;6.84;100;95160.14;;;;
2021/11/14 05:57:27;;;;;;;20.4;14;;;;;;;6.84;100;95160.14;;;;
2021/11/14 05:58:35;;;;;;;20.4;14;;;;;;;6.84;100;95160.14;;;;
2021/11/14 05:59:42;;;;;;;20.75;14.1;;;;;;;6.83;100;95168.73;;;;
2021/11/14 06:00:50;;;;;;;20.75;14.1;;;;;;;6.83;100;95168.73;;;;
2021/11/14 06:01:55;;;;;;;20.75;14.1;;;;;;;6.83;100;95168.73;;;;
2021/11/14 06:03:02;;;;;;;20.75;14.1;;;;;;;6.83;100;95168.73;;;;
2021/11/14 06:04:07;;;;;;;20.75;14.1;;;;;;;6.83;100;95168.73;;;;
2021/11/14 06:05:14;;;;;;;20.75;14.1;;;;;;;6.83;100;95168.73;;;;
2021/11/14 06:06:15;;;;;;;20.75;14.1;;;;;;;6.83;100;95168.73;;;;
2021/11/14 06:07:16;;;;;;;20.75;14.1;;;;;;;6.83;100;95168.73;;;;
2021/11/14 06:08:20;;;;;;;20.75;14.1;;;;;;;6.83;100;95168.73;;;;
2021/11/14 06:09:21;;;;;;;20.75;14.1;;;;;;;6.83;100;95168.73;;;;